createdAt,value
2023-04-16T00:00:07.929Z,22.80
2023-04-16T00:02:39.354Z,22.80
2023-04-16T00:05:07.753Z,22.80
2023-04-16T00:07:36.071Z,22.80
2023-04-16T00:10:04.015Z,22.80
2023-04-16T00:12:31.755Z,22.80
2023-04-16T00:14:59.756Z,22.80
2023-04-16T00:17:27.623Z,22.80
2023-04-16T00:19:55.533Z,22.80
2023-04-16T00:22:23.306Z,22.80
2023-04-16T00:24:51.165Z,22.80
2023-04-16T00:27:19.659Z,22.80
2023-04-16T00:29:47.721Z,22.80
2023-04-16T00:32:15.687Z,22.80
2023-04-16T00:34:43.434Z,22.80
2023-04-16T00:37:11.159Z,22.80
2023-04-16T00:39:38.921Z,22.80
2023-04-16T00:42:06.728Z,22.80
2023-04-16T00:44:37.188Z,22.80
2023-04-16T00:47:07.684Z,22.80
2023-04-16T00:49:36.490Z,22.80
2023-04-16T00:52:04.507Z,22.80
2023-04-16T00:54:32.625Z,22.70
2023-04-16T00:57:01.671Z,22.80
2023-04-16T00:59:29.886Z,22.80
2023-04-16T01:01:57.679Z,22.80
2023-04-16T01:04:26.351Z,22.80
2023-04-16T01:06:54.534Z,22.80
2023-04-16T01:09:22.333Z,22.80
2023-04-16T01:11:50.075Z,22.70
2023-04-16T01:14:17.796Z,22.80
2023-04-16T01:16:45.679Z,22.80
2023-04-16T01:19:13.383Z,22.80
2023-04-16T01:21:41.237Z,22.80
2023-04-16T01:24:09.095Z,22.80
2023-04-16T01:26:36.814Z,22.70
2023-04-16T01:29:04.587Z,22.80
2023-04-16T01:31:32.366Z,22.80
2023-04-16T01:34:15.225Z,22.80
2023-04-16T01:36:43.154Z,22.80
2023-04-16T01:39:15.580Z,22.80
2023-04-16T01:41:43.788Z,22.80
2023-04-16T01:44:11.537Z,22.80
2023-04-16T01:46:39.910Z,22.80
2023-04-16T01:49:07.830Z,22.80
2023-04-16T01:51:35.684Z,22.80
2023-04-16T01:54:04.662Z,22.80
2023-04-16T01:56:32.402Z,22.80
2023-04-16T01:59:00.353Z,22.80
2023-04-16T02:01:34.092Z,22.80
2023-04-16T02:04:01.975Z,22.80
2023-04-16T02:06:29.859Z,22.80
2023-04-16T02:08:57.567Z,22.80
2023-04-16T02:11:26.692Z,22.80
2023-04-16T02:13:55.609Z,22.80
2023-04-16T02:16:24.120Z,22.80
2023-04-16T02:19:00.736Z,22.80
2023-04-16T02:21:31.900Z,22.80
2023-04-16T02:24:00.164Z,22.80
2023-04-16T02:26:31.051Z,22.80
2023-04-16T02:29:04.593Z,22.80
2023-04-16T02:31:40.047Z,22.80
2023-04-16T02:34:08.919Z,22.80
2023-04-16T02:36:36.865Z,22.80
2023-04-16T02:39:05.174Z,22.80
2023-04-16T02:41:33.198Z,22.80
2023-04-16T02:44:01.092Z,22.80
2023-04-16T02:46:29.158Z,22.80
2023-04-16T02:48:56.995Z,22.80
2023-04-16T02:51:24.696Z,22.80
2023-04-16T02:53:52.493Z,22.80
2023-04-16T02:56:20.453Z,22.80
2023-04-16T02:58:48.344Z,22.80
2023-04-16T03:01:16.479Z,22.80
2023-04-16T03:03:44.490Z,22.80
2023-04-16T03:06:12.975Z,22.80
2023-04-16T03:08:40.821Z,22.80
2023-04-16T03:11:08.645Z,22.80
2023-04-16T03:13:36.404Z,22.80
2023-04-16T03:16:04.222Z,22.80
2023-04-16T03:18:32.177Z,22.80
2023-04-16T03:20:59.997Z,22.80
2023-04-16T03:23:28.502Z,22.80
2023-04-16T03:25:56.405Z,22.80
2023-04-16T03:28:26.329Z,22.80
2023-04-16T03:30:54.488Z,22.80
2023-04-16T03:33:22.894Z,22.80
2023-04-16T03:35:57.263Z,22.80
2023-04-16T03:38:27.244Z,22.80
2023-04-16T03:40:57.363Z,22.70
2023-04-16T03:43:25.220Z,22.80
2023-04-16T03:45:53.396Z,22.80
2023-04-16T03:48:24.135Z,22.80
2023-04-16T03:50:51.936Z,22.80
2023-04-16T03:53:21.517Z,22.80
2023-04-16T03:55:51.635Z,22.80
2023-04-16T03:58:21.037Z,22.80
2023-04-16T04:00:49.022Z,22.80
2023-04-16T04:03:18.750Z,22.80
2023-04-16T04:05:49.427Z,22.80
2023-04-16T04:08:24.897Z,22.70
2023-04-16T04:10:52.874Z,22.80
2023-04-16T04:13:22.518Z,22.80
2023-04-16T04:15:51.852Z,22.80
2023-04-16T04:18:20.471Z,22.70
2023-04-16T04:20:48.198Z,22.80
2023-04-16T04:23:18.537Z,22.80
2023-04-16T04:25:47.507Z,22.80
2023-04-16T04:28:15.683Z,22.80
2023-04-16T04:30:43.594Z,22.80
2023-04-16T04:33:11.566Z,22.70
2023-04-16T04:35:39.923Z,22.80
2023-04-16T04:38:09.734Z,22.70
2023-04-16T04:40:37.639Z,22.70
2023-04-16T04:43:05.564Z,22.80
2023-04-16T04:45:35.020Z,22.70
2023-04-16T04:48:03.237Z,22.70
2023-04-16T04:50:31.438Z,22.70
2023-04-16T04:52:59.234Z,22.70
2023-04-16T04:55:27.900Z,22.70
2023-04-16T04:57:55.982Z,22.70
2023-04-16T05:00:23.830Z,22.70
2023-04-16T05:02:55.424Z,22.80
2023-04-16T05:05:23.338Z,22.70
2023-04-16T05:07:51.461Z,22.70
2023-04-16T05:10:20.960Z,22.70
2023-04-16T05:12:49.200Z,22.70
2023-04-16T05:15:17.533Z,22.70
2023-04-16T05:17:45.759Z,22.70
2023-04-16T05:20:13.664Z,22.70
2023-04-16T05:22:41.573Z,22.70
2023-04-16T05:25:09.558Z,22.70
2023-04-16T05:27:37.733Z,22.70
2023-04-16T05:30:06.336Z,22.70
2023-04-16T05:32:34.291Z,22.70
2023-04-16T05:35:02.637Z,22.70
2023-04-16T05:37:30.668Z,22.70
2023-04-16T05:39:58.486Z,22.70
2023-04-16T05:42:26.365Z,22.70
2023-04-16T05:44:54.186Z,22.70
2023-04-16T05:47:22.116Z,22.70
2023-04-16T05:49:50.040Z,22.70
2023-04-16T05:52:17.823Z,22.70
2023-04-16T05:54:45.746Z,22.70
2023-04-16T05:57:14.636Z,22.60
2023-04-16T05:59:42.552Z,22.70
2023-04-16T06:02:10.507Z,22.70
2023-04-16T06:04:38.474Z,22.70
2023-04-16T06:07:06.392Z,22.70
2023-04-16T06:09:34.319Z,22.70
2023-04-16T06:12:02.414Z,22.70
2023-04-16T06:14:30.434Z,22.70
2023-04-16T06:16:58.354Z,22.60
2023-04-16T06:19:26.154Z,22.70
2023-04-16T06:21:54.290Z,22.60
2023-04-16T06:24:22.253Z,22.70
2023-04-16T06:26:50.081Z,22.70
2023-04-16T06:29:18.228Z,22.60
2023-04-16T06:31:46.496Z,22.60
2023-04-16T06:34:14.484Z,22.70
2023-04-16T06:36:42.335Z,22.60
2023-04-16T06:39:10.373Z,22.60
2023-04-16T06:41:38.344Z,22.60
2023-04-16T06:44:06.473Z,22.60
2023-04-16T06:46:34.546Z,22.70
2023-04-16T06:49:02.437Z,22.60
2023-04-16T06:51:30.833Z,22.60
2023-04-16T06:53:58.751Z,22.60
2023-04-16T06:56:26.691Z,22.60
2023-04-16T06:58:57.855Z,22.60
2023-04-16T07:01:26.107Z,22.60
2023-04-16T07:03:55.066Z,22.60
2023-04-16T07:06:23.073Z,22.70
2023-04-16T07:08:50.896Z,22.60
2023-04-16T07:11:19.529Z,22.60
2023-04-16T07:13:47.486Z,22.60
2023-04-16T07:16:15.353Z,22.60
2023-04-16T07:18:43.266Z,22.60
2023-04-16T07:21:11.193Z,22.60
2023-04-16T07:23:39.078Z,22.60
2023-04-16T07:26:07.080Z,22.70
2023-04-16T07:28:35.006Z,22.60
2023-04-16T07:31:03.116Z,22.60
2023-04-16T07:33:30.973Z,22.70
2023-04-16T07:35:58.835Z,22.70
2023-04-16T07:38:26.652Z,22.70
2023-04-16T07:40:56.801Z,22.60
2023-04-16T07:43:24.898Z,22.70
2023-04-16T07:45:52.721Z,22.70
2023-04-16T07:48:22.406Z,22.60
2023-04-16T07:50:50.495Z,22.70
2023-04-16T07:53:18.376Z,22.70
2023-04-16T07:55:46.231Z,22.60
2023-04-16T07:58:14.166Z,22.60
2023-04-16T08:00:42.148Z,22.70
2023-04-16T08:03:10.178Z,22.70
2023-04-16T08:05:38.241Z,22.60
2023-04-16T08:08:06.278Z,22.60
2023-04-16T08:10:34.396Z,22.60
2023-04-16T08:13:02.347Z,22.60
2023-04-16T08:15:31.037Z,22.60
2023-04-16T08:17:59.739Z,22.60
2023-04-16T08:20:27.897Z,22.60
2023-04-16T08:22:55.745Z,22.70
2023-04-16T08:25:24.873Z,22.70
2023-04-16T08:27:52.817Z,22.70
2023-04-16T08:30:22.277Z,22.70
2023-04-16T08:32:50.793Z,22.60
2023-04-16T08:35:18.736Z,22.70
2023-04-16T08:37:46.666Z,22.70
2023-04-16T08:40:14.707Z,22.70
2023-04-16T08:42:53.277Z,22.60
2023-04-16T08:45:21.471Z,22.70
2023-04-16T08:47:51.222Z,22.60
2023-04-16T08:50:24.407Z,22.60
2023-04-16T08:52:53.988Z,22.60
2023-04-16T08:55:36.106Z,22.60
2023-04-16T08:58:16.386Z,22.70
2023-04-16T09:00:46.256Z,22.60
2023-04-16T09:03:14.240Z,22.60
2023-04-16T09:05:44.038Z,22.70
2023-04-16T09:08:12.656Z,22.70
2023-04-16T09:10:40.525Z,22.70
2023-04-16T09:13:11.757Z,22.70
2023-04-16T09:15:41.189Z,22.70
2023-04-16T09:18:09.122Z,22.70
2023-04-16T09:20:37.032Z,22.70
2023-04-16T09:23:05.085Z,22.70
2023-04-16T09:25:37.391Z,22.70
2023-04-16T09:28:05.401Z,22.70
2023-04-16T09:30:34.667Z,22.70
2023-04-16T09:33:35.062Z,22.70
2023-04-16T09:36:02.998Z,22.70
2023-04-16T09:38:47.653Z,22.70
2023-04-16T09:41:16.818Z,22.70
2023-04-16T09:43:58.756Z,22.70
2023-04-16T09:46:35.406Z,22.70
2023-04-16T09:49:10.424Z,22.70
2023-04-16T09:51:41.059Z,22.70
2023-04-16T09:54:09.689Z,22.70
2023-04-16T09:56:45.017Z,22.70
2023-04-16T09:59:22.568Z,22.60
2023-04-16T10:01:51.214Z,22.60
2023-04-16T10:04:20.192Z,22.60
2023-04-16T10:07:06.193Z,22.70
2023-04-16T10:09:38.951Z,22.60
2023-04-16T10:12:07.451Z,22.60
2023-04-16T10:14:35.970Z,22.60
2023-04-16T10:17:06.445Z,22.60
2023-04-16T10:19:35.633Z,22.70
2023-04-16T10:22:04.217Z,22.60
2023-04-16T10:24:33.615Z,22.70
2023-04-16T10:27:02.122Z,22.60
2023-04-16T10:29:32.049Z,22.60
2023-04-16T10:32:01.459Z,22.60
2023-04-16T10:34:31.425Z,22.70
2023-04-16T10:36:59.381Z,22.60
2023-04-16T10:39:34.522Z,22.70
2023-04-16T10:42:12.998Z,22.60
2023-04-16T10:44:44.361Z,22.70
2023-04-16T10:47:14.388Z,22.70
2023-04-16T10:49:43.845Z,22.70
2023-04-16T10:52:17.182Z,22.70
2023-04-16T10:54:46.714Z,22.70
2023-04-16T10:57:19.767Z,22.70
2023-04-16T10:59:49.206Z,22.70
2023-04-16T11:02:18.522Z,22.70
2023-04-16T11:04:48.723Z,22.70
2023-04-16T11:07:50.049Z,22.70
2023-04-16T11:10:17.958Z,22.70
2023-04-16T11:12:49.376Z,22.70
2023-04-16T11:15:22.074Z,22.70
2023-04-16T11:17:51.929Z,22.70
2023-04-16T11:20:24.897Z,22.70
2023-04-16T11:22:55.111Z,22.70
2023-04-16T11:25:24.916Z,22.70
2023-04-16T11:27:53.570Z,22.70
2023-04-16T11:30:35.716Z,22.80
2023-04-16T11:33:09.298Z,22.70
2023-04-16T11:35:39.633Z,22.80
2023-04-16T11:38:08.111Z,22.80
2023-04-16T11:40:36.515Z,22.80
2023-04-16T11:43:15.855Z,22.70
2023-04-16T11:46:01.615Z,22.80
2023-04-16T11:48:50.194Z,22.80
2023-04-16T11:51:19.794Z,22.80
2023-04-16T11:53:53.088Z,22.80
2023-04-16T11:56:28.497Z,22.70
2023-04-16T11:59:09.419Z,22.80
2023-04-16T12:01:39.385Z,22.80
2023-04-16T12:04:08.211Z,22.80
2023-04-16T12:06:36.363Z,22.80
2023-04-16T12:09:24.165Z,22.80
2023-04-16T12:11:52.196Z,22.80
2023-04-16T12:14:20.599Z,22.70
2023-04-16T12:16:48.583Z,22.80
2023-04-16T12:19:16.586Z,22.80
2023-04-16T12:21:46.520Z,22.80
2023-04-16T12:24:24.243Z,22.80
2023-04-16T12:27:03.384Z,22.80
2023-04-16T12:29:32.057Z,22.80
2023-04-16T12:31:59.996Z,22.80
2023-04-16T12:34:49.383Z,22.80
2023-04-16T12:37:16.123Z,22.80
2023-04-16T12:39:44.406Z,22.80
2023-04-16T12:42:13.126Z,22.80
2023-04-16T12:44:41.207Z,22.80
2023-04-16T12:47:09.118Z,22.80
2023-04-16T12:49:37.665Z,22.80
2023-04-16T12:52:06.445Z,22.80
2023-04-16T12:54:34.790Z,22.80
2023-04-16T12:57:02.637Z,22.80
2023-04-16T12:59:30.612Z,22.80
2023-04-16T13:01:58.519Z,22.80
2023-04-16T13:04:26.906Z,22.80
2023-04-16T13:06:54.908Z,22.80
2023-04-16T13:09:22.907Z,22.80
2023-04-16T13:11:50.958Z,22.80
2023-04-16T13:14:19.494Z,22.80
2023-04-16T13:16:47.379Z,22.80
2023-04-16T13:19:16.174Z,22.80
2023-04-16T13:21:44.050Z,22.80
2023-04-16T13:24:11.938Z,22.80
2023-04-16T13:26:39.811Z,22.80
2023-04-16T13:29:08.003Z,22.80
2023-04-16T13:31:36.350Z,22.80
2023-04-16T13:34:04.977Z,22.80
2023-04-16T13:36:33.616Z,22.80
2023-04-16T13:39:03.124Z,22.80
2023-04-16T13:41:31.819Z,22.80
2023-04-16T13:43:59.727Z,22.80
2023-04-16T13:46:29.163Z,22.80
2023-04-16T13:48:57.136Z,22.80
2023-04-16T13:51:25.417Z,22.80
2023-04-16T13:53:56.074Z,22.80
2023-04-16T13:56:24.060Z,22.70
2023-04-16T13:58:52.399Z,22.80
2023-04-16T14:01:20.782Z,22.80
2023-04-16T14:03:49.824Z,22.70
2023-04-16T14:06:18.337Z,22.80
2023-04-16T14:08:46.303Z,22.80
2023-04-16T14:11:14.314Z,22.80
2023-04-16T14:13:42.492Z,22.80
2023-04-16T14:16:10.956Z,22.90
2023-04-16T14:18:42.528Z,22.90
2023-04-16T14:21:10.540Z,22.90
2023-04-16T14:23:38.377Z,23.00
2023-04-16T14:26:06.279Z,23.00
2023-04-16T14:28:35.646Z,23.10
2023-04-16T14:31:03.482Z,23.10
2023-04-16T14:33:32.465Z,23.10
2023-04-16T14:36:02.715Z,23.00
2023-04-16T14:38:31.544Z,23.00
2023-04-16T14:41:00.618Z,23.00
2023-04-16T14:43:28.593Z,23.00
2023-04-16T14:45:58.692Z,23.00
2023-04-16T14:48:26.791Z,23.10
2023-04-16T14:50:54.722Z,23.10
2023-04-16T14:53:23.863Z,23.20
2023-04-16T14:55:54.827Z,23.20
2023-04-16T14:58:22.696Z,23.30
2023-04-16T15:00:50.663Z,23.30
2023-04-16T15:03:18.816Z,23.30
2023-04-16T15:05:50.919Z,23.30
2023-04-16T15:08:18.787Z,23.40
2023-04-16T15:10:46.653Z,23.40
2023-04-16T15:13:14.603Z,23.40
2023-04-16T15:15:42.894Z,23.40
2023-04-16T15:18:10.998Z,23.40
2023-04-16T15:20:38.924Z,23.40
2023-04-16T15:23:07.138Z,23.40
2023-04-16T15:25:35.047Z,23.40
2023-04-16T15:28:03.106Z,23.40
2023-04-16T15:30:31.559Z,23.40
2023-04-16T15:32:59.427Z,23.30
2023-04-16T15:35:27.408Z,23.40
2023-04-16T15:37:55.494Z,23.30
2023-04-16T15:40:24.557Z,23.30
2023-04-16T15:42:52.590Z,23.30
2023-04-16T15:45:21.328Z,23.30
2023-04-16T15:47:51.564Z,23.30
2023-04-16T15:50:20.535Z,23.30
2023-04-16T15:52:48.479Z,23.30
2023-04-16T15:55:17.941Z,23.30
2023-04-16T15:57:46.021Z,23.30
2023-04-16T16:00:15.138Z,23.20
2023-04-16T16:02:47.684Z,23.20
2023-04-16T16:05:16.977Z,23.30
2023-04-16T16:07:45.137Z,23.20
2023-04-16T16:10:13.489Z,23.20
2023-04-16T16:12:41.916Z,23.20
2023-04-16T16:15:11.358Z,23.20
2023-04-16T16:17:40.858Z,23.20
2023-04-16T16:20:10.712Z,23.20
2023-04-16T16:22:39.291Z,23.20
2023-04-16T16:25:07.782Z,23.20
2023-04-16T16:27:36.586Z,23.20
2023-04-16T16:30:07.367Z,23.20
2023-04-16T16:32:35.313Z,23.20
2023-04-16T16:35:03.396Z,23.20
2023-04-16T16:37:31.388Z,23.20
2023-04-16T16:39:59.207Z,23.20
2023-04-16T16:42:27.434Z,23.20
2023-04-16T16:44:57.320Z,23.20
2023-04-16T16:47:25.593Z,23.20
2023-04-16T16:49:54.866Z,23.20
2023-04-16T16:52:24.214Z,23.20
2023-04-16T16:54:54.026Z,23.10
2023-04-16T16:57:21.902Z,23.20
2023-04-16T16:59:51.129Z,23.10
2023-04-16T17:02:19.158Z,23.20
2023-04-16T17:04:47.050Z,23.10
2023-04-16T17:07:15.027Z,23.10
2023-04-16T17:09:43.049Z,23.10
2023-04-16T17:12:11.070Z,23.10
2023-04-16T17:14:39.544Z,23.10
2023-04-16T17:17:07.428Z,23.10
2023-04-16T17:19:35.362Z,23.10
2023-04-16T17:22:03.638Z,23.10
2023-04-16T17:24:31.532Z,23.10
2023-04-16T17:26:59.362Z,23.10
2023-04-16T17:29:27.324Z,23.10
2023-04-16T17:31:57.310Z,23.10
2023-04-16T17:34:25.200Z,23.10
2023-04-16T17:36:53.117Z,23.10
2023-04-16T17:39:21.162Z,23.10
2023-04-16T17:41:54.325Z,23.10
2023-04-16T17:44:23.273Z,23.10
2023-04-16T17:46:51.260Z,23.10
2023-04-16T17:49:19.135Z,23.10
2023-04-16T17:51:47.090Z,23.00
2023-04-16T17:54:15.019Z,23.00
2023-04-16T17:56:42.949Z,23.00
2023-04-16T17:59:10.780Z,23.00
2023-04-16T18:01:38.964Z,22.90
2023-04-16T18:04:07.167Z,23.00
2023-04-16T18:06:35.569Z,23.00
2023-04-16T18:09:05.897Z,22.90
2023-04-16T18:11:34.030Z,23.00
2023-04-16T18:14:02.061Z,22.90
2023-04-16T18:16:29.920Z,22.90
2023-04-16T18:18:57.909Z,22.90
2023-04-16T18:21:26.281Z,22.90
2023-04-16T18:23:54.070Z,22.90
2023-04-16T18:26:22.944Z,23.00
2023-04-16T18:28:51.169Z,22.90
2023-04-16T18:31:21.366Z,22.90
2023-04-16T18:33:57.453Z,22.90
2023-04-16T18:36:27.009Z,22.90
2023-04-16T18:39:02.248Z,22.90
2023-04-16T18:41:31.463Z,22.90
2023-04-16T18:43:59.593Z,22.90
2023-04-16T18:46:27.783Z,22.90
2023-04-16T18:48:55.836Z,22.80
2023-04-16T18:51:23.721Z,22.90
2023-04-16T18:53:51.798Z,22.90
2023-04-16T18:56:19.944Z,22.90
2023-04-16T18:58:47.963Z,22.90
2023-04-16T19:01:16.753Z,22.90
2023-04-16T19:03:45.616Z,22.80
2023-04-16T19:06:13.558Z,22.90
2023-04-16T19:08:41.257Z,22.90
2023-04-16T19:11:09.164Z,22.80
2023-04-16T19:13:38.207Z,22.80
2023-04-16T19:16:11.286Z,22.80
2023-04-16T19:18:39.729Z,22.80
2023-04-16T19:21:07.718Z,22.90
2023-04-16T19:23:35.818Z,22.80
2023-04-16T19:26:04.015Z,22.80
2023-04-16T19:28:31.966Z,22.80
2023-04-16T19:30:59.859Z,22.80
2023-04-16T19:33:27.733Z,22.80
2023-04-16T19:35:55.612Z,22.80
2023-04-16T19:38:23.488Z,22.80
2023-04-16T19:40:51.347Z,22.80
2023-04-16T19:43:19.399Z,22.80
2023-04-16T19:45:52.467Z,22.80
2023-04-16T19:48:21.562Z,22.80
2023-04-16T19:50:49.472Z,22.80
2023-04-16T19:53:17.467Z,22.80
2023-04-16T19:55:45.685Z,22.80
2023-04-16T19:58:14.803Z,22.80
2023-04-16T20:00:43.323Z,22.80
2023-04-16T20:03:11.610Z,22.80
2023-04-16T20:05:39.554Z,22.80
2023-04-16T20:08:07.461Z,22.80
2023-04-16T20:10:35.277Z,22.80
2023-04-16T20:13:03.117Z,22.80
2023-04-16T20:15:30.937Z,22.80
2023-04-16T20:17:58.805Z,22.80
2023-04-16T20:20:26.656Z,22.80
2023-04-16T20:22:54.470Z,22.80
2023-04-16T20:25:22.841Z,22.80
2023-04-16T20:27:50.816Z,22.80
2023-04-16T20:30:18.687Z,22.80
2023-04-16T20:32:46.624Z,22.80
2023-04-16T20:35:14.783Z,22.80
2023-04-16T20:37:43.259Z,22.80
2023-04-16T20:40:11.418Z,22.80
2023-04-16T20:42:40.935Z,22.80
2023-04-16T20:45:09.748Z,22.80
2023-04-16T20:47:37.732Z,22.80
2023-04-16T20:50:06.030Z,22.80
2023-04-16T20:52:33.861Z,22.80
2023-04-16T20:55:01.670Z,22.80
2023-04-16T20:57:32.174Z,22.80
2023-04-16T20:59:59.960Z,22.80
2023-04-16T21:02:28.508Z,22.80
2023-04-16T21:04:56.707Z,22.80
2023-04-16T21:07:24.607Z,22.80
2023-04-16T21:09:52.441Z,22.80
2023-04-16T21:12:20.363Z,22.80
2023-04-16T21:14:48.217Z,22.80
2023-04-16T21:17:16.100Z,22.80
2023-04-16T21:19:43.928Z,22.80
2023-04-16T21:22:11.773Z,22.80
2023-04-16T21:24:39.609Z,22.80
2023-04-16T21:27:07.458Z,22.80
2023-04-16T21:29:35.378Z,22.80
2023-04-16T21:32:03.279Z,22.70
2023-04-16T21:34:31.190Z,22.80
2023-04-16T21:36:59.408Z,22.80
2023-04-16T21:39:30.995Z,22.80
2023-04-16T21:41:58.786Z,22.80
2023-04-16T21:44:26.485Z,22.70
2023-04-16T21:46:54.331Z,22.80
2023-04-16T21:49:22.349Z,22.80
2023-04-16T21:51:50.432Z,22.80
2023-04-16T21:54:20.205Z,22.80
2023-04-16T21:56:47.935Z,22.80
2023-04-16T21:59:15.964Z,22.80
2023-04-16T22:01:43.750Z,22.70
2023-04-16T22:04:12.231Z,22.70
2023-04-16T22:06:40.625Z,22.80
2023-04-16T22:09:09.552Z,22.80
2023-04-16T22:11:38.365Z,22.80
2023-04-16T22:14:08.363Z,22.80
2023-04-16T22:16:36.142Z,22.70
2023-04-16T22:19:03.918Z,22.80
2023-04-16T22:21:31.642Z,22.70
2023-04-16T22:23:59.447Z,22.70
2023-04-16T22:26:27.156Z,22.80
2023-04-16T22:28:54.865Z,22.80
2023-04-16T22:31:22.560Z,22.80
2023-04-16T22:33:50.349Z,22.70
2023-04-16T22:36:18.071Z,22.70
2023-04-16T22:38:45.860Z,22.70
2023-04-16T22:41:13.732Z,22.70
2023-04-16T22:43:41.484Z,22.70
2023-04-16T22:46:09.655Z,22.70
2023-04-16T22:48:38.865Z,22.70
2023-04-16T22:51:08.770Z,22.70
2023-04-16T22:53:36.949Z,22.70
2023-04-16T22:56:05.090Z,22.70
2023-04-16T22:58:32.846Z,22.70
2023-04-16T23:01:01.888Z,22.70
2023-04-16T23:03:30.804Z,22.70
2023-04-16T23:05:58.811Z,22.70
2023-04-16T23:08:26.900Z,22.70
2023-04-16T23:10:54.753Z,22.70
2023-04-16T23:13:22.443Z,22.70
2023-04-16T23:15:50.355Z,22.70
2023-04-16T23:18:18.451Z,22.70
2023-04-16T23:20:46.175Z,22.70
2023-04-16T23:23:13.875Z,22.70
2023-04-16T23:25:42.062Z,22.70
2023-04-16T23:28:09.934Z,22.60
2023-04-16T23:30:37.778Z,22.60
2023-04-16T23:33:05.624Z,22.60
2023-04-16T23:35:33.452Z,22.60
2023-04-16T23:38:01.309Z,22.60
2023-04-16T23:40:29.181Z,22.70
2023-04-16T23:42:56.920Z,22.60
2023-04-16T23:45:24.726Z,22.60
2023-04-16T23:47:52.489Z,22.60
2023-04-16T23:50:20.418Z,22.60
2023-04-16T23:52:48.219Z,22.60
2023-04-16T23:55:15.988Z,22.60
2023-04-16T23:57:43.753Z,22.60
